createdAt,value
2022-12-28T00:00:51.677Z,7.65
2022-12-28T00:05:45.009Z,7.05
2022-12-28T00:11:09.073Z,7.93
2022-12-28T00:15:52.960Z,9.40
2022-12-28T00:20:48.556Z,9.70
2022-12-28T00:25:41.870Z,14.15
2022-12-28T00:30:35.094Z,7.68
2022-12-28T00:35:29.898Z,7.25
2022-12-28T00:40:24.295Z,7.03
2022-12-28T00:45:18.930Z,7.15
2022-12-28T00:50:12.394Z,7.15
2022-12-28T00:55:07.518Z,6.82
2022-12-28T01:00:00.643Z,7.18
2022-12-28T01:04:53.800Z,6.78
2022-12-28T01:09:47.108Z,6.63
2022-12-28T01:14:41.783Z,8.70
2022-12-28T01:19:34.969Z,6.93
2022-12-28T01:24:28.131Z,6.50
2022-12-28T01:29:21.383Z,6.57
2022-12-28T01:34:16.497Z,6.20
2022-12-28T01:39:12.908Z,5.93
2022-12-28T01:44:45.374Z,6.78
2022-12-28T01:49:44.663Z,6.45
2022-12-28T01:54:43.973Z,15.15
2022-12-28T01:59:42.120Z,7.90
2022-12-28T02:04:35.478Z,7.35
2022-12-28T02:09:34.489Z,7.00
2022-12-28T02:14:29.011Z,7.20
2022-12-28T02:19:35.062Z,7.00
2022-12-28T02:25:12.484Z,6.85
2022-12-28T02:30:10.463Z,5.90
2022-12-28T02:35:09.827Z,5.05
2022-12-28T02:40:08.536Z,3.70
2022-12-28T02:45:20.960Z,3.47
2022-12-28T02:50:18.072Z,3.22
2022-12-28T02:55:58.535Z,3.20
2022-12-28T03:01:04.384Z,2.90
2022-12-28T03:06:30.265Z,2.83
2022-12-28T03:11:31.903Z,3.03
2022-12-28T03:16:54.736Z,2.88
2022-12-28T03:22:13.745Z,2.60
2022-12-28T03:27:33.152Z,2.55
2022-12-28T03:32:26.585Z,2.70
2022-12-28T03:37:25.943Z,2.80
2022-12-28T03:42:45.635Z,2.65
2022-12-28T03:47:42.163Z,2.85
2022-12-28T03:52:37.469Z,2.95
2022-12-28T03:57:32.013Z,3.00
2022-12-28T04:02:25.906Z,3.05
2022-12-28T04:07:19.383Z,2.80
2022-12-28T04:12:16.426Z,3.42
2022-12-28T04:17:41.973Z,5.75
2022-12-28T04:22:36.199Z,3.38
2022-12-28T04:27:30.910Z,6.47
2022-12-28T04:32:31.834Z,4.10
2022-12-28T04:37:25.223Z,3.40
2022-12-28T04:42:18.370Z,4.87
2022-12-28T04:47:13.563Z,3.70
2022-12-28T04:52:06.916Z,3.90
2022-12-28T04:57:00.119Z,3.20
2022-12-28T05:01:53.384Z,3.67
2022-12-28T05:06:48.003Z,3.43
2022-12-28T05:11:41.275Z,4.03
2022-12-28T05:16:35.025Z,3.60
2022-12-28T05:21:30.012Z,3.70
2022-12-28T05:26:27.134Z,4.33
2022-12-28T05:31:22.612Z,3.60
2022-12-28T05:36:18.018Z,3.97
2022-12-28T05:41:13.807Z,4.70
2022-12-28T05:46:10.820Z,4.00
2022-12-28T05:51:05.973Z,3.70
2022-12-28T05:56:05.659Z,4.27
2022-12-28T06:01:10.494Z,3.60
2022-12-28T06:06:08.573Z,4.60
2022-12-28T06:11:02.921Z,4.00
2022-12-28T06:15:56.176Z,4.63
2022-12-28T06:20:56.795Z,4.60
2022-12-28T06:25:50.404Z,3.70
2022-12-28T06:30:48.944Z,3.60
2022-12-28T06:35:45.764Z,3.60
2022-12-28T06:45:57.633Z,3.90
2022-12-28T06:50:58.760Z,3.70
2022-12-28T06:55:57.970Z,5.23
2022-12-28T07:00:51.306Z,3.87
2022-12-28T07:05:47.640Z,3.97
2022-12-28T07:10:40.981Z,4.13
2022-12-28T07:15:43.963Z,4.13
2022-12-28T07:20:40.622Z,3.60
2022-12-28T07:25:33.961Z,4.43
2022-12-28T07:30:27.229Z,3.67
2022-12-28T07:35:21.891Z,3.40
2022-12-28T07:40:15.151Z,3.65
2022-12-28T07:45:10.932Z,4.03
2022-12-28T07:50:07.544Z,3.88
2022-12-28T07:55:02.407Z,4.40
2022-12-28T07:59:55.626Z,3.72
2022-12-28T08:04:52.239Z,4.10
2022-12-28T08:09:45.868Z,3.03
2022-12-28T08:14:43.025Z,3.60
2022-12-28T08:19:39.260Z,3.60
2022-12-28T08:24:32.500Z,3.30
2022-12-28T08:29:25.707Z,3.40
2022-12-28T08:34:29.403Z,3.50
2022-12-28T08:39:22.617Z,3.65
2022-12-28T08:44:20.876Z,3.38
2022-12-28T08:49:16.296Z,2.92
2022-12-28T08:54:13.751Z,2.95
2022-12-28T08:59:07.282Z,2.92
2022-12-28T09:04:02.400Z,2.80
2022-12-28T09:09:05.487Z,3.75
2022-12-28T09:14:03.532Z,3.92
2022-12-28T09:19:01.226Z,3.05
2022-12-28T09:23:55.920Z,3.25
2022-12-28T09:28:50.400Z,3.80
2022-12-28T09:39:18.376Z,4.07
2022-12-28T09:44:28.655Z,3.80
2022-12-28T09:49:29.395Z,4.10
2022-12-28T09:54:23.241Z,4.13
2022-12-28T09:59:20.693Z,4.35
2022-12-28T10:04:17.184Z,4.80
2022-12-28T10:09:19.703Z,4.88
2022-12-28T10:14:20.685Z,5.00
2022-12-28T10:19:20.148Z,6.63
2022-12-28T10:24:31.428Z,4.70
2022-12-28T10:29:27.178Z,6.10
2022-12-28T10:34:22.990Z,5.97
2022-12-28T10:39:27.422Z,4.10
2022-12-28T10:44:42.032Z,4.65
2022-12-28T10:49:39.534Z,4.25
2022-12-28T10:54:38.477Z,4.50
2022-12-28T10:59:33.877Z,5.05
2022-12-28T11:04:27.899Z,4.30
2022-12-28T11:09:23.927Z,3.33
2022-12-28T11:14:29.838Z,6.00
2022-12-28T11:19:24.010Z,4.20
2022-12-28T11:24:25.786Z,4.70
2022-12-28T11:29:20.480Z,4.00
2022-12-28T11:34:27.213Z,4.35
2022-12-28T11:39:46.458Z,4.32
2022-12-28T11:44:55.442Z,6.72
2022-12-28T11:49:51.768Z,4.18
2022-12-28T11:54:53.488Z,4.85
2022-12-28T11:59:47.077Z,3.97
2022-12-28T12:04:47.532Z,4.45
2022-12-28T12:14:45.705Z,5.22
2022-12-28T12:19:43.695Z,5.20
2022-12-28T12:24:44.323Z,4.20
2022-12-28T12:29:43.135Z,4.90
2022-12-28T12:34:45.128Z,4.10
2022-12-28T12:39:52.985Z,5.35
2022-12-28T12:45:01.608Z,5.57
2022-12-28T12:50:16.537Z,7.97
2022-12-28T12:55:22.842Z,4.57
2022-12-28T13:00:21.394Z,7.85
2022-12-28T13:05:18.621Z,5.55
2022-12-28T13:10:18.653Z,4.00
2022-12-28T13:15:19.775Z,4.45
2022-12-28T13:20:20.399Z,4.35
2022-12-28T13:25:26.009Z,10.15
2022-12-28T13:30:23.505Z,6.82
2022-12-28T13:35:22.015Z,4.20
2022-12-28T13:40:17.832Z,5.45
2022-12-28T13:45:19.680Z,5.30
2022-12-28T13:50:18.782Z,5.68
2022-12-28T13:55:19.293Z,6.65
2022-12-28T14:05:09.631Z,17.02
2022-12-28T14:10:05.458Z,11.23
2022-12-28T14:15:02.831Z,8.32
2022-12-28T14:19:58.072Z,7.10
2022-12-28T14:25:03.608Z,8.75
2022-12-28T14:29:58.994Z,7.07
2022-12-28T14:34:58.538Z,8.90
2022-12-28T14:39:51.775Z,8.70
2022-12-28T14:44:54.158Z,8.55
2022-12-28T14:49:58.763Z,10.60
2022-12-28T14:54:55.694Z,14.18
2022-12-28T14:59:56.401Z,17.30
2022-12-28T15:05:00.340Z,16.73
2022-12-28T15:09:53.994Z,16.90
2022-12-28T15:14:48.077Z,20.00
2022-12-28T15:19:43.209Z,20.25
2022-12-28T15:24:41.693Z,22.95
2022-12-28T15:34:48.424Z,26.08
2022-12-28T15:39:44.262Z,32.03
2022-12-28T15:44:37.474Z,34.33
2022-12-28T15:49:32.859Z,35.92
2022-12-28T15:54:26.135Z,53.20
2022-12-28T15:59:21.351Z,51.70
2022-12-28T16:04:14.815Z,50.35
2022-12-28T16:09:09.353Z,58.92
2022-12-28T16:14:04.904Z,57.90
2022-12-28T16:19:02.528Z,66.67
2022-12-28T16:23:56.796Z,70.63
2022-12-28T16:28:50.224Z,60.70
2022-12-28T16:33:43.391Z,61.33
2022-12-28T16:38:37.988Z,61.57
2022-12-28T16:43:31.362Z,56.33
2022-12-28T16:48:25.122Z,61.20
2022-12-28T16:53:24.347Z,57.50
2022-12-28T16:58:19.546Z,56.13
2022-12-28T17:03:12.754Z,59.73
2022-12-28T17:08:08.372Z,61.00
2022-12-28T17:13:01.580Z,98.43
2022-12-28T17:17:56.158Z,83.37
2022-12-28T17:22:49.341Z,93.87
2022-12-28T17:27:42.644Z,115.17
2022-12-28T17:32:35.918Z,144.73
2022-12-28T17:37:30.532Z,140.80
2022-12-28T17:42:24.111Z,133.63
2022-12-28T17:47:20.250Z,126.73
2022-12-28T17:52:18.755Z,123.30
2022-12-28T17:57:13.470Z,115.10
2022-12-28T18:02:10.313Z,122.13
2022-12-28T18:07:06.768Z,127.30
2022-12-28T18:12:00.278Z,137.80
2022-12-28T18:16:56.460Z,101.20
2022-12-28T18:21:50.562Z,83.37
2022-12-28T18:26:43.741Z,67.83
2022-12-28T18:31:37.981Z,66.53
2022-12-28T18:36:32.672Z,69.07
2022-12-28T18:41:32.053Z,108.97
2022-12-28T18:46:27.004Z,109.60
2022-12-28T18:51:20.479Z,102.93
2022-12-28T18:56:16.697Z,91.20
2022-12-28T19:01:39.783Z,138.43
2022-12-28T19:06:26.945Z,96.50
2022-12-28T19:11:21.617Z,90.87
2022-12-28T19:16:18.717Z,91.53
2022-12-28T19:21:19.903Z,93.53
2022-12-28T19:26:13.207Z,85.53
2022-12-28T19:31:07.981Z,85.07
2022-12-28T19:36:01.908Z,81.30
2022-12-28T19:40:55.593Z,77.20
2022-12-28T19:45:48.917Z,65.43
2022-12-28T19:50:43.568Z,61.13
2022-12-28T19:55:37.357Z,63.80
2022-12-28T20:00:32.564Z,52.70
2022-12-28T20:05:26.362Z,48.83
2022-12-28T20:10:21.171Z,46.33
2022-12-28T20:15:20.855Z,46.90
2022-12-28T20:20:16.990Z,47.43
2022-12-28T20:25:11.086Z,42.80
2022-12-28T20:30:06.725Z,38.80
2022-12-28T20:34:59.953Z,46.43
2022-12-28T20:39:55.106Z,47.93
2022-12-28T20:44:51.349Z,49.93
2022-12-28T20:49:46.106Z,34.30
2022-12-28T20:54:39.587Z,34.20
2022-12-28T20:59:34.108Z,28.80
2022-12-28T21:04:27.664Z,29.80
2022-12-28T21:09:24.672Z,24.07
2022-12-28T21:14:17.896Z,30.00
2022-12-28T21:19:11.502Z,26.50
2022-12-28T21:24:05.039Z,32.03
2022-12-28T21:29:00.490Z,36.97
2022-12-28T21:33:55.895Z,41.70
2022-12-28T21:38:49.940Z,33.87
2022-12-28T21:43:43.703Z,42.73
2022-12-28T21:48:39.333Z,35.97
2022-12-28T21:53:32.662Z,32.20
2022-12-28T21:58:25.900Z,24.30
2022-12-28T22:03:49.989Z,30.13
2022-12-28T22:09:12.344Z,20.87
2022-12-28T22:14:06.259Z,32.13
2022-12-28T22:19:04.871Z,34.93
2022-12-28T22:23:58.167Z,32.90
2022-12-28T22:28:52.206Z,19.63
2022-12-28T22:33:45.509Z,16.43
2022-12-28T22:38:40.415Z,12.73
2022-12-28T22:43:33.984Z,12.53
2022-12-28T22:48:27.476Z,10.13
2022-12-28T22:53:20.922Z,11.67
2022-12-28T22:58:15.615Z,11.50
2022-12-28T23:03:08.788Z,9.87
2022-12-28T23:08:02.115Z,7.77
2022-12-28T23:12:55.295Z,9.20
2022-12-28T23:17:50.455Z,8.40
2022-12-28T23:23:06.714Z,8.13
2022-12-28T23:28:01.881Z,7.83
2022-12-28T23:32:59.673Z,9.33
2022-12-28T23:37:53.297Z,9.43
2022-12-28T23:42:46.987Z,8.67
2022-12-28T23:47:43.903Z,10.13
2022-12-28T23:52:38.665Z,9.83
2022-12-28T23:57:31.941Z,12.77
